Time;durP1;ratioP1;P1;durP2;ratioP2;P2;SDS_P1;SDS_P2;PMS_P1;PMS_P2;Temp;Humidity;BMP_temperature;BMP_pressure;BME280_temperature;BME280_humidity;BME280_pressure;Samples;Min_cycle;Max_cycle;Signal;HPM_P1;HPM_P2
2024/01/19 05:22:33;;;;;;;9.40;6.40;;;;;;;-3.08;100.00;100347.50;5109891;27;20756;-34
2024/01/19 05:24:58;;;;;;;13.18;8.25;;;;;;;-2.90;100.00;100355.22;5109900;28;20035;-34
2024/01/19 05:27:23;;;;;;;15.05;10.05;;;;;;;-2.69;100.00;100366.22;5109629;28;20126;-35
2024/01/19 05:29:49;;;;;;;16.48;8.60;;;;;;;-2.67;100.00;100367.84;5109553;28;20051;-35
2024/01/19 05:32:14;;;;;;;14.55;9.05;;;;;;;-2.85;100.00;100369.69;5109783;28;20031;-34
2024/01/19 05:34:39;;;;;;;17.05;9.45;;;;;;;-2.66;100.00;100374.72;5109783;28;20040;-35
2024/01/19 05:37:05;;;;;;;17.48;10.10;;;;;;;-2.64;100.00;100374.63;5109400;28;20044;-35
2024/01/19 05:39:31;;;;;;;16.52;9.75;;;;;;;-2.64;100.00;100369.41;5109561;28;20130;-35
2024/01/19 05:41:56;;;;;;;16.63;9.30;;;;;;;-2.59;100.00;100376.06;5109468;28;20036;-34
2024/01/19 05:44:22;;;;;;;15.43;9.27;;;;;;;-2.63;100.00;100381.53;5109371;28;20070;-35
2024/01/19 05:46:47;;;;;;;14.88;9.13;;;;;;;-2.77;100.00;100384.91;5109226;28;20096;-35
2024/01/19 05:49:12;;;;;;;12.20;8.73;;;;;;;-2.59;100.00;100390.88;5109385;28;20035;-34
2024/01/19 05:51:38;;;;;;;14.90;9.02;;;;;;;-2.72;100.00;100393.31;5109303;28;20043;-35
2024/01/19 05:54:03;;;;;;;13.75;8.68;;;;;;;-2.85;100.00;100394.94;5109457;28;20110;-35
2024/01/19 05:56:28;;;;;;;16.23;8.52;;;;;;;-2.86;100.00;100406.28;5109019;28;20137;-34
2024/01/19 05:58:54;;;;;;;14.20;9.15;;;;;;;-2.92;100.00;100406.63;5109232;28;20071;-35
2024/01/19 06:01:21;;;;;;;14.25;9.80;;;;;;;-3.12;100.00;100412.91;5109016;28;20115;-35
2024/01/19 06:03:46;;;;;;;13.50;8.38;;;;;;;-3.23;100.00;100413.47;5109257;28;20391;-35
2024/01/19 06:06:11;;;;;;;13.90;8.73;;;;;;;-3.21;100.00;100409.00;5108834;28;20088;-36
2024/01/19 06:08:37;;;;;;;16.17;8.93;;;;;;;-3.26;100.00;100411.03;5108932;28;20039;-35
2024/01/19 06:11:02;;;;;;;18.38;9.63;;;;;;;-3.18;100.00;100419.28;5109082;28;20040;-36
2024/01/19 06:13:28;;;;;;;18.75;9.80;;;;;;;-3.08;100.00;100430.88;5108978;28;20050;-36
2024/01/19 06:15:53;;;;;;;15.70;8.50;;;;;;;-3.27;100.00;100433.63;5109927;28;20044;-36
2024/01/19 06:18:18;;;;;;;16.77;9.27;;;;;;;-3.38;100.00;100437.75;5111024;28;20038;-36
2024/01/19 06:20:44;;;;;;;14.50;9.77;;;;;;;-3.30;100.00;100446.84;5110853;28;20044;-36
2024/01/19 06:23:10;;;;;;;15.88;9.88;;;;;;;-3.27;100.00;100451.88;5109414;28;20433;-35
2024/01/19 06:25:36;;;;;;;16.35;9.55;;;;;;;-3.29;100.00;100451.13;5108562;28;20402;-36
2024/01/19 06:28:02;;;;;;;14.48;9.45;;;;;;;-3.33;100.00;100453.94;5108461;28;20039;-34
2024/01/19 06:30:28;;;;;;;14.82;9.95;;;;;;;-3.42;100.00;100467.47;5108582;28;20030;-34
2024/01/19 06:32:53;;;;;;;17.35;10.35;;;;;;;-3.39;100.00;100469.91;5101139;28;20036;-36
2024/01/19 06:35:19;;;;;;;15.18;8.98;;;;;;;-3.56;100.00;100469.00;5094970;28;20042;-36
2024/01/19 06:37:44;;;;;;;11.25;8.95;;;;;;;-3.25;100.00;100479.63;5094588;28;20136;-36
2024/01/19 06:40:14;;;;;;;15.80;9.57;;;;;;;-3.53;100.00;100486.22;5094777;28;20127;-36
2024/01/19 06:42:40;;;;;;;15.70;8.75;;;;;;;-3.37;100.00;100494.13;5094888;28;20036;-35
2024/01/19 06:45:06;;;;;;;13.55;9.07;;;;;;;-3.52;100.00;100500.97;5094780;28;20505;-35
2024/01/19 06:47:32;;;;;;;14.90;9.18;;;;;;;-3.50;100.00;100512.16;5094449;28;20040;-35
2024/01/19 06:49:57;;;;;;;15.30;8.88;;;;;;;-3.38;100.00;100510.69;5094347;28;20040;-36
2024/01/19 06:52:23;;;;;;;16.00;10.40;;;;;;;-3.30;100.00;100519.78;5094677;28;20036;-36
2024/01/19 06:54:48;;;;;;;13.88;9.15;;;;;;;-3.27;100.00;100530.03;5094685;28;20064;-34
2024/01/19 06:57:14;;;;;;;16.45;10.07;;;;;;;-3.23;100.00;100527.28;5094368;28;20040;-36
2024/01/19 06:59:39;;;;;;;14.63;9.93;;;;;;;-3.25;100.00;100532.59;5094352;28;20044;-36
2024/01/19 07:02:04;;;;;;;13.73;8.82;;;;;;;-3.33;100.00;100542.53;5093172;28;20123;-35
2024/01/19 07:04:30;;;;;;;14.10;8.90;;;;;;;-3.23;100.00;100546.38;5093192;28;20050;-35
2024/01/19 07:06:55;;;;;;;12.75;9.25;;;;;;;-3.35;100.00;100547.81;5094153;28;20043;-36
2024/01/19 07:09:21;;;;;;;15.93;9.15;;;;;;;-3.23;100.00;100548.13;5094137;28;20042;-36
2024/01/19 07:11:46;;;;;;;11.40;8.68;;;;;;;-3.14;100.00;100552.84;5094261;28;20376;-35
2024/01/19 07:14:11;;;;;;;14.85;9.20;;;;;;;-3.02;100.00;100557.44;5094086;28;20039;-35
2024/01/19 07:16:41;;;;;;;19.48;9.77;;;;;;;-3.10;100.00;100564.81;5093729;28;20682;-35
2024/01/19 07:19:06;;;;;;;13.25;9.05;;;;;;;-2.93;100.00;100564.81;5093974;28;20044;-34
2024/01/19 07:21:41;;;;;;;16.48;9.60;;;;;;;-2.93;100.00;100557.00;5093982;28;20096;-36
2024/01/19 07:24:07;;;;;;;13.90;9.02;;;;;;;-3.11;100.00;100574.41;5094121;28;20441;-34
2024/01/19 07:26:33;;;;;;;14.98;8.82;;;;;;;-2.98;100.00;100582.44;5093766;28;20078;-34
2024/01/19 07:28:59;;;;;;;3.33;2.90;;;;;;;7.51;100.00;100581.09;5093756;28;20558;-37
2024/01/19 07:31:26;;;;;;;11.82;8.32;;;;;;;11.46;95.28;100565.13;5093521;28;20063;-35
2024/01/19 07:33:51;;;;;;;12.68;7.25;;;;;;;11.71;77.66;100571.19;5093594;28;20111;-36
2024/01/19 07:36:16;;;;;;;11.45;6.13;;;;;;;9.50;57.81;100572.00;5093717;28;20112;-43
2024/01/19 07:38:42;;;;;;;12.07;7.03;;;;;;;-0.68;98.43;100593.91;5093274;28;20101;-40
2024/01/19 07:41:07;;;;;;;13.60;8.07;;;;;;;-1.71;100.00;100599.06;5092829;28;20068;-43
2024/01/19 07:43:33;;;;;;;12.75;7.78;;;;;;;-1.69;100.00;100595.44;5092561;28;20503;-43
2024/01/19 07:45:58;;;;;;;11.35;7.90;;;;;;;-1.47;100.00;100600.28;5092613;28;20399;-41
2024/01/19 07:48:24;;;;;;;12.68;8.13;;;;;;;-1.48;100.00;100598.59;5092930;28;20072;-39
2024/01/19 07:50:50;;;;;;;15.05;8.40;;;;;;;-1.43;100.00;100604.41;5093166;28;20559;-43
2024/01/19 07:53:15;;;;;;;17.05;9.65;;;;;;;-1.23;100.00;100603.25;5093116;28;20032;-42
2024/01/19 07:55:40;;;;;;;12.63;7.97;;;;;;;-1.07;100.00;100618.03;5092955;28;20529;-41
2024/01/19 07:58:06;;;;;;;15.77;8.32;;;;;;;0.01;100.00;100613.22;5092692;28;20036;-41
2024/01/19 08:00:31;;;;;;;17.30;9.13;;;;;;;1.13;100.00;100615.44;5092806;28;20043;-41
2024/01/19 08:02:57;;;;;;;19.88;8.07;;;;;;;0.94;100.00;100620.22;5092797;28;20111;-39
2024/01/19 08:05:22;;;;;;;13.35;8.30;;;;;;;1.42;100.00;100628.34;5092846;28;20040;-37
2024/01/19 08:07:48;;;;;;;13.98;8.00;;;;;;;-0.40;100.00;100637.53;5092570;28;20047;-43
2024/01/19 08:10:13;;;;;;;13.98;8.68;;;;;;;-0.54;100.00;100641.00;5092745;28;20039;-40
2024/01/19 08:12:39;;;;;;;14.85;8.77;;;;;;;-0.86;100.00;100640.31;5092608;28;20127;-41
2024/01/19 08:15:07;;;;;;;13.57;9.02;;;;;;;-0.92;100.00;100648.50;5092390;28;20051;-40
2024/01/19 08:17:33;;;;;;;15.07;9.15;;;;;;;-0.95;100.00;100652.16;5092126;28;20047;-42
2024/01/19 08:19:59;;;;;;;13.15;8.30;;;;;;;-0.69;100.00;100648.00;5092375;28;20040;-42
2024/01/19 08:22:24;;;;;;;13.90;9.25;;;;;;;-0.40;100.00;100651.47;5091992;28;20071;-40
2024/01/19 08:24:50;;;;;;;12.38;9.15;;;;;;;0.65;100.00;100650.97;5092266;28;20036;-42
2024/01/19 08:27:15;;;;;;;13.65;8.32;;;;;;;0.16;100.00;100649.75;5092056;28;20436;-42
2024/01/19 08:29:41;;;;;;;13.88;8.38;;;;;;;1.98;99.60;100648.03;5092300;28;20036;-41
2024/01/19 08:32:06;;;;;;;18.60;10.23;;;;;;;1.70;97.95;100654.38;5092261;28;20121;-42
2024/01/19 08:34:31;;;;;;;13.48;9.07;;;;;;;2.03;97.43;100661.69;5092269;28;20122;-41
2024/01/19 08:36:57;;;;;;;13.82;9.13;;;;;;;2.33;96.49;100657.81;5091925;28;20035;-42
2024/01/19 08:39:22;;;;;;;13.18;8.65;;;;;;;2.69;92.05;100662.19;5092254;28;20643;-40
2024/01/19 08:41:47;;;;;;;12.38;9.15;;;;;;;2.87;88.14;100660.84;5090140;28;20123;-43
2024/01/19 08:44:13;;;;;;;12.27;8.85;;;;;;;2.89;91.11;100663.38;5091962;28;20407;-41
2024/01/19 08:46:45;;;;;;;12.90;9.23;;;;;;;3.01;87.67;100658.97;5089719;28;20036;-43
2024/01/19 08:49:11;;;;;;;12.65;8.73;;;;;;;3.10;84.10;100669.66;5080959;28;20388;-40
2024/01/19 08:51:37;;;;;;;13.57;8.93;;;;;;;3.39;82.64;100675.38;5091702;28;20028;-43
2024/01/19 08:54:03;;;;;;;11.35;8.38;;;;;;;2.99;82.68;100678.34;5091682;28;20051;-43
2024/01/19 08:56:29;;;;;;;11.27;8.25;;;;;;;3.10;86.61;100674.91;5083078;28;20032;-43
2024/01/19 08:58:55;;;;;;;13.60;8.20;;;;;;;3.10;85.59;100690.72;5071519;28;20064;-39
2024/01/19 09:01:21;;;;;;;10.90;8.32;;;;;;;3.02;88.13;100697.50;5071614;28;20035;-42
2024/01/19 09:03:46;;;;;;;9.68;7.70;;;;;;;3.94;84.22;100680.78;5070516;28;20406;-41
2024/01/19 09:06:12;;;;;;;11.80;8.35;;;;;;;4.14;82.46;100687.13;5071281;28;20047;-42
2024/01/19 09:08:44;;;;;;;12.00;7.75;;;;;;;4.23;78.44;100696.94;5071049;28;20396;-43
2024/01/19 09:11:10;;;;;;;11.23;7.85;;;;;;;3.82;81.24;100706.31;5021217;28;63718;-40
2024/01/19 09:13:39;;;;;;;10.80;8.07;;;;;;;4.42;78.59;100707.72;5031798;28;20045;-42
2024/01/19 09:16:07;;;;;;;11.90;7.75;;;;;;;4.09;81.04;100711.22;5031182;28;20037;-41
2024/01/19 09:18:34;;;;;;;10.93;8.15;;;;;;;4.23;82.76;100710.97;5031167;28;20045;-39
2024/01/19 09:21:00;;;;;;;12.98;8.73;;;;;;;4.38;76.13;100716.84;5031242;28;20061;-41
2024/01/19 09:23:25;;;;;;;10.82;7.30;;;;;;;4.79;74.62;100724.06;5031495;28;20116;-44
2024/01/19 09:25:51;;;;;;;10.10;7.60;;;;;;;3.83;78.43;100730.84;5031214;28;20029;-44
2024/01/19 09:28:17;;;;;;;10.38;7.50;;;;;;;4.29;75.42;100730.75;5030857;28;20037;-43
2024/01/19 09:30:42;;;;;;;9.93;7.65;;;;;;;3.95;77.99;100736.03;5031220;28;20061;-43
2024/01/19 09:33:07;;;;;;;12.63;8.13;;;;;;;3.37;85.19;100744.88;5031349;28;20041;-43
2024/01/19 09:35:33;;;;;;;9.55;7.75;;;;;;;4.90;78.71;100752.25;5030982;28;20382;-43
2024/01/19 09:37:58;;;;;;;13.20;8.18;;;;;;;4.07;82.60;100764.06;5030940;28;20045;-44
2024/01/19 09:40:24;;;;;;;10.50;6.72;;;;;;;3.05;84.06;100771.81;5031186;28;20665;-41
2024/01/19 09:42:54;;;;;;;8.82;7.07;;;;;;;3.28;81.57;100780.66;5031153;28;20740;-43
2024/01/19 09:45:21;;;;;;;9.38;7.10;;;;;;;4.98;79.26;100784.13;5031185;28;20040;-44
2024/01/19 09:48:13;;;;;;;11.32;7.72;;;;;;;3.81;82.91;100792.44;5030820;28;20165;-43
2024/01/19 09:50:41;;;;;;;11.15;8.32;;;;;;;4.13;79.39;100801.47;5031089;28;20037;-42
2024/01/19 09:53:20;;;;;;;8.68;7.05;;;;;;;4.58;76.72;100800.53;5031021;28;20037;-41
2024/01/19 09:55:49;;;;;;;10.10;7.63;;;;;;;5.52;77.75;100807.00;5031073;28;20405;-42
2024/01/19 09:58:15;;;;;;;9.75;7.70;;;;;;;3.35;79.38;100813.47;5030922;28;20077;-42
2024/01/19 10:00:40;;;;;;;12.45;8.27;;;;;;;5.36;75.44;100807.44;5035714;28;20036;-42
2024/01/19 10:03:09;;;;;;;11.45;7.50;;;;;;;3.36;80.72;100819.59;5040936;28;20029;-44
2024/01/19 10:05:36;;;;;;;11.65;7.97;;;;;;;3.47;86.92;100823.13;5036156;28;20175;-42
2024/01/19 10:08:03;;;;;;;9.95;7.60;;;;;;;3.10;89.03;100824.13;5032018;28;20036;-43
2024/01/19 10:10:29;;;;;;;;;;;;;;;2.97;89.12;100824.16;5035078;28;20524;-43
2024/01/19 10:12:54;;;;;;;11.23;8.10;;;;;;;2.94;91.65;100833.13;5034546;28;19997;-41
2024/01/19 10:15:20;;;;;;;11.23;8.18;;;;;;;2.59;91.98;100835.63;5034694;28;20052;-41
2024/01/19 10:17:46;;;;;;;11.27;7.95;;;;;;;1.97;96.82;100845.22;5034113;28;20073;-42
2024/01/19 10:20:13;;;;;;;11.30;7.93;;;;;;;1.14;100.00;100839.31;5034408;28;20025;-40
2024/01/19 10:22:39;;;;;;;9.63;7.15;;;;;;;0.88;100.00;100846.22;5034477;28;20037;-39
2024/01/19 10:25:08;;;;;;;10.95;7.50;;;;;;;0.74;100.00;100840.06;5034471;28;20033;-43
2024/01/19 10:27:38;;;;;;;10.13;7.95;;;;;;;0.59;100.00;100851.50;5034079;28;20040;-39
2024/01/19 10:30:12;;;;;;;10.10;7.68;;;;;;;1.55;100.00;100855.84;5034327;28;20044;-43
2024/01/19 10:32:40;;;;;;;9.77;7.10;;;;;;;1.66;97.37;100847.25;5034215;28;20037;-42
2024/01/19 10:35:07;;;;;;;12.20;8.20;;;;;;;1.76;95.65;100856.22;5034254;28;20029;-39
2024/01/19 10:37:33;;;;;;;;;;;;;;;2.24;94.11;100855.66;5034526;28;20038;-42
2024/01/19 10:40:27;;;;;;;10.68;7.80;;;;;;;2.11;93.88;100858.25;5034114;28;20450;-43
2024/01/19 10:42:56;;;;;;;11.25;8.23;;;;;;;2.02;96.45;100862.38;5034330;28;20374;-40
2024/01/19 10:45:23;;;;;;;12.68;8.00;;;;;;;1.55;98.94;100858.47;5034012;28;20037;-42
2024/01/19 10:47:51;;;;;;;10.05;7.35;;;;;;;1.93;100.00;100856.88;5038663;28;20083;-41
2024/01/19 10:50:17;;;;;;;10.27;6.88;;;;;;;1.68;97.16;100857.66;5053482;28;20416;-41
2024/01/19 10:52:53;;;;;;;9.75;7.18;;;;;;;1.71;99.21;100865.34;5053811;28;20029;-42
2024/01/19 10:55:24;;;;;;;11.18;7.38;;;;;;;1.33;100.00;100864.28;5053776;28;20037;-40
2024/01/19 10:57:57;;;;;;;12.40;8.57;;;;;;;1.45;100.00;100849.53;5053239;28;20025;-41
2024/01/19 11:00:22;;;;;;;11.00;7.05;;;;;;;1.13;100.00;100861.25;5043773;28;20558;-41
2024/01/19 11:02:50;;;;;;;8.77;6.75;;;;;;;1.21;100.00;100864.22;5053193;28;20028;-38
2024/01/19 11:05:17;;;;;;;10.98;7.85;;;;;;;1.23;100.00;100867.59;5053462;28;20052;-41
2024/01/19 11:07:43;;;;;;;;;;;;;;;1.46;100.00;100868.75;5053572;28;20559;-38
2024/01/19 11:10:08;;;;;;;10.85;7.28;;;;;;;1.74;100.00;100862.50;5052028;28;20007;-42
2024/01/19 11:12:37;;;;;;;11.10;7.47;;;;;;;1.62;100.00;100866.78;5048864;28;20037;-41
2024/01/19 11:15:09;;;;;;;11.60;8.27;;;;;;;1.36;100.00;100866.69;5044629;28;20501;-39
2024/01/19 11:17:36;;;;;;;10.65;7.10;;;;;;;1.43;100.00;100861.03;5043839;28;20042;-41
2024/01/19 11:20:04;;;;;;;9.45;7.30;;;;;;;1.67;100.00;100863.84;5045860;28;20090;-38
2024/01/19 11:22:30;;;;;;;9.98;6.30;;;;;;;0.95;100.00;100869.34;5046735;28;20041;-44
2024/01/19 11:25:01;;;;;;;10.48;7.03;;;;;;;1.26;100.00;100868.25;5043709;28;20038;-43
2024/01/19 11:27:36;;;;;;;8.98;6.78;;;;;;;1.73;99.69;100868.72;5027614;28;20120;-44
2024/01/19 11:30:14;;;;;;;9.23;7.15;;;;;;;1.76;98.67;100864.09;5043349;28;20087;-44
2024/01/19 11:32:39;;;;;;;10.55;7.25;;;;;;;1.63;99.53;100853.56;5042554;28;20033;-44
2024/01/19 11:35:05;;;;;;;10.25;7.28;;;;;;;2.15;99.65;100865.84;5044605;28;20033;-44
2024/01/19 11:37:44;;;;;;;9.77;6.60;;;;;;;2.77;90.29;100867.69;5044073;28;20045;-45
2024/01/19 11:40:21;;;;;;;8.82;6.45;;;;;;;2.40;95.96;100870.25;5045255;28;20428;-45
2024/01/19 11:42:47;;;;;;;11.70;5.82;;;;;;;1.49;98.50;100863.28;5043433;28;20554;-44
2024/01/19 11:45:27;;;;;;;10.80;7.18;;;;;;;2.24;96.23;100874.03;5043596;28;20090;-45
2024/01/19 11:47:53;;;;;;;9.43;6.75;;;;;;;2.13;94.98;100874.75;5041242;28;20389;-42
2024/01/19 11:50:39;;;;;;;8.80;6.68;;;;;;;2.45;96.57;100865.50;5041389;28;20021;-41
2024/01/19 11:53:05;;;;;;;9.82;7.35;;;;;;;2.66;93.39;100864.97;5049119;28;20528;-42
2024/01/19 11:55:31;;;;;;;10.15;6.78;;;;;;;2.89;91.82;100868.63;5048743;28;20152;-42
2024/01/19 11:58:17;;;;;;;10.32;6.95;;;;;;;2.87;91.41;100878.38;5049770;28;20424;-41
2024/01/19 12:00:42;;;;;;;10.07;7.15;;;;;;;2.42;94.29;100878.03;5052899;28;20032;-43
2024/01/19 12:03:08;;;;;;;9.90;7.00;;;;;;;2.78;94.51;100877.25;5052896;28;20401;-45
2024/01/19 12:05:36;;;;;;;11.85;7.45;;;;;;;3.34;91.70;100880.28;5052798;28;20040;-43
2024/01/19 12:08:01;;;;;;;11.10;7.50;;;;;;;3.19;90.85;100884.84;5052457;28;20037;-44
2024/01/19 12:10:27;;;;;;;9.45;7.05;;;;;;;2.67;92.93;100890.31;5052732;28;20063;-41
2024/01/19 12:12:53;;;;;;;10.43;7.35;;;;;;;2.28;100.00;100899.16;5052691;28;20079;-44
2024/01/19 12:15:19;;;;;;;13.48;8.10;;;;;;;2.36;97.62;100892.47;5052745;28;20515;-43
2024/01/19 12:17:44;;;;;;;9.82;7.25;;;;;;;2.25;96.93;100905.47;5052462;28;20041;-44
2024/01/19 12:20:16;;;;;;;10.88;7.53;;;;;;;1.80;100.00;100897.09;5052440;28;20390;-45
2024/01/19 12:22:42;;;;;;;11.93;7.40;;;;;;;2.00;99.58;100905.44;5052495;28;20048;-41
2024/01/19 12:25:15;;;;;;;12.82;8.45;;;;;;;2.12;100.00;100904.63;5052428;28;20102;-45
2024/01/19 12:27:41;;;;;;;14.18;7.45;;;;;;;2.23;99.18;100910.00;5052324;28;20043;-45
2024/01/19 12:30:21;;;;;;;10.38;6.38;;;;;;;1.85;100.00;100897.63;5051914;28;20132;-45
2024/01/19 12:32:47;;;;;;;9.95;6.93;;;;;;;2.25;100.00;100902.00;5052390;28;20041;-45
2024/01/19 12:35:12;;;;;;;11.02;7.45;;;;;;;1.93;99.11;100902.38;5052041;28;20064;-45
2024/01/19 12:37:38;;;;;;;9.15;6.40;;;;;;;1.45;100.00;100911.69;5048899;28;20069;-44
2024/01/19 12:40:17;;;;;;;10.05;7.30;;;;;;;2.02;100.00;100911.44;5052148;28;20037;-43
2024/01/19 12:42:43;;;;;;;9.48;6.07;;;;;;;1.06;100.00;100913.28;5052162;28;20112;-45
2024/01/19 12:45:11;;;;;;;10.45;6.85;;;;;;;1.62;100.00;100906.16;5052067;28;20727;-44
2024/01/19 12:47:43;;;;;;;9.73;7.00;;;;;;;1.59;100.00;100906.38;5051922;28;20048;-44
2024/01/19 12:50:09;;;;;;;13.15;8.15;;;;;;;2.20;100.00;100904.94;5051801;28;20040;-45
2024/01/19 12:52:34;;;;;;;10.05;7.38;;;;;;;1.92;100.00;100902.50;5032591;28;20124;-44
2024/01/19 12:55:00;;;;;;;8.57;6.53;;;;;;;1.40;100.00;100906.72;5032092;28;20087;-45
2024/01/19 12:57:25;;;;;;;9.73;6.85;;;;;;;1.68;100.00;100903.16;5031904;28;20512;-44
2024/01/19 13:00:16;;;;;;;12.02;6.82;;;;;;;1.18;100.00;100911.69;5031917;28;20037;-43
2024/01/19 13:02:45;;;;;;;13.05;7.20;;;;;;;1.40;100.00;100904.09;5031955;28;20412;-45
2024/01/19 13:05:21;;;;;;;11.30;6.95;;;;;;;1.36;100.00;100903.44;5030764;28;20046;-42
2024/01/19 13:07:47;;;;;;;11.35;7.05;;;;;;;1.72;100.00;100894.13;5031650;28;20030;-41
2024/01/19 13:10:20;;;;;;;10.20;6.68;;;;;;;1.58;100.00;100904.72;5031894;28;20037;-45
2024/01/19 13:12:48;;;;;;;10.45;6.88;;;;;;;2.01;100.00;100909.75;5031610;28;20403;-45
2024/01/19 13:15:16;;;;;;;11.85;7.57;;;;;;;2.10;100.00;100907.38;5031775;28;20043;-45
2024/01/19 13:17:43;;;;;;;10.02;6.85;;;;;;;2.55;100.00;100909.59;5031602;28;20041;-44
2024/01/19 13:20:11;;;;;;;12.57;7.55;;;;;;;2.21;100.00;100911.88;5031630;28;20037;-42
2024/01/19 13:22:40;;;;;;;10.23;7.13;;;;;;;2.28;100.00;100914.94;5031753;28;20432;-42
2024/01/19 13:25:07;;;;;;;10.75;6.38;;;;;;;2.40;100.00;100907.06;5031697;28;20033;-45
2024/01/19 13:27:34;;;;;;;11.25;6.82;;;;;;;2.07;100.00;100909.34;5031537;28;20052;-43
2024/01/19 13:29:59;;;;;;;10.77;6.68;;;;;;;1.84;100.00;100908.25;5031632;28;20068;-44
2024/01/19 13:32:25;;;;;;;11.50;7.05;;;;;;;1.98;100.00;100915.22;5041691;28;20068;-42
2024/01/19 13:34:50;;;;;;;11.20;7.20;;;;;;;1.79;100.00;100911.19;5051229;28;20041;-40
2024/01/19 13:37:16;;;;;;;12.30;7.72;;;;;;;1.27;100.00;100919.78;5046312;28;20037;-44
2024/01/19 13:39:41;;;;;;;11.02;7.05;;;;;;;1.18;100.00;100915.13;5047786;28;20037;-44
2024/01/19 13:42:07;;;;;;;11.43;7.40;;;;;;;1.30;100.00;100918.75;5051315;28;20036;-39
2024/01/19 13:44:35;;;;;;;10.77;7.35;;;;;;;1.12;100.00;100928.66;5055194;28;20170;-39
2024/01/19 13:47:00;;;;;;;9.75;7.25;;;;;;;0.87;100.00;100931.09;5054877;28;20048;-44
2024/01/19 13:49:25;;;;;;;11.15;6.88;;;;;;;1.43;100.00;100918.81;5055008;28;20060;-44
2024/01/19 13:51:51;;;;;;;9.93;7.80;;;;;;;1.27;100.00;100916.31;5054943;28;20044;-40
2024/01/19 13:54:16;;;;;;;9.32;6.85;;;;;;;1.12;100.00;100931.28;5055066;28;20075;-44
2024/01/19 13:56:42;;;;;;;11.30;7.05;;;;;;;1.18;100.00;100924.78;5054747;28;20091;-44
2024/01/19 13:59:08;;;;;;;11.00;7.20;;;;;;;1.45;100.00;100923.03;5054790;28;20036;-44
2024/01/19 14:01:33;;;;;;;12.15;7.70;;;;;;;1.02;100.00;100930.16;5054497;28;20489;-43
2024/01/19 14:03:59;;;;;;;9.20;6.70;;;;;;;1.63;100.00;100923.66;5054824;28;20044;-41
2024/01/19 14:06:25;;;;;;;9.90;6.55;;;;;;;1.59;100.00;100924.78;5054586;28;20041;-44
2024/01/19 14:08:51;;;;;;;10.60;7.53;;;;;;;1.60;100.00;100929.06;5054624;28;20500;-44
2024/01/19 14:11:18;;;;;;;11.13;7.68;;;;;;;1.95;100.00;100918.03;5054652;28;20041;-44
2024/01/19 14:13:44;;;;;;;9.07;6.28;;;;;;;1.63;100.00;100926.28;5054585;28;20036;-43
2024/01/19 14:16:09;;;;;;;10.20;6.97;;;;;;;1.71;100.00;100931.03;5054527;28;20083;-43
2024/01/19 14:18:35;;;;;;;10.60;6.80;;;;;;;1.75;100.00;100927.22;5054343;28;20037;-42
2024/01/19 14:21:00;;;;;;;10.70;6.55;;;;;;;1.70;100.00;100932.81;5054494;28;20033;-44
2024/01/19 14:23:26;;;;;;;8.60;6.15;;;;;;;1.53;100.00;100940.91;5054600;28;20496;-42
2024/01/19 14:25:52;;;;;;;10.95;6.57;;;;;;;1.00;100.00;100942.53;5053578;28;20029;-41
2024/01/19 14:28:17;;;;;;;11.32;7.85;;;;;;;1.46;100.00;100952.75;5054012;28;20041;-41
2024/01/19 14:30:43;;;;;;;13.32;7.72;;;;;;;1.25;100.00;100949.72;5054392;28;20111;-44
2024/01/19 14:33:09;;;;;;;10.93;6.78;;;;;;;0.98;100.00;100950.50;5054362;28;20045;-44
2024/01/19 14:35:35;;;;;;;8.85;6.85;;;;;;;0.89;100.00;100956.28;5054461;28;20064;-44
2024/01/19 14:38:01;;;;;;;7.80;5.78;;;;;;;1.00;100.00;100960.88;5054127;28;20570;-43
2024/01/19 14:40:27;;;;;;;10.32;6.18;;;;;;;0.92;100.00;100966.63;5054352;28;20048;-42
2024/01/19 14:42:52;;;;;;;9.98;6.28;;;;;;;1.04;100.00;100970.25;5054278;28;20032;-43
2024/01/19 14:45:18;;;;;;;8.45;5.72;;;;;;;0.87;100.00;100981.78;5049509;28;20124;-44
2024/01/19 14:47:43;;;;;;;8.68;6.47;;;;;;;0.65;100.00;100978.75;5050252;28;20045;-42
2024/01/19 14:50:09;;;;;;;8.07;5.70;;;;;;;0.71;100.00;100986.25;5054178;28;20060;-42
2024/01/19 14:52:35;;;;;;;8.57;5.90;;;;;;;0.84;100.00;100986.34;5053903;28;20518;-43
2024/01/19 14:55:04;;;;;;;7.78;5.70;;;;;;;1.12;100.00;100991.63;5053343;28;20124;-44
2024/01/19 14:57:30;;;;;;;8.68;6.03;;;;;;;0.87;100.00;100986.19;5053185;28;20048;-44
2024/01/19 14:59:56;;;;;;;8.75;5.30;;;;;;;0.59;100.00;100993.09;5053142;28;20037;-41
2024/01/19 15:02:21;;;;;;;7.65;5.20;;;;;;;0.93;100.00;100991.91;5053369;28;20044;-44
2024/01/19 15:04:47;;;;;;;7.22;5.13;;;;;;;0.66;100.00;100990.97;5053180;28;20512;-42
2024/01/19 15:07:14;;;;;;;7.75;5.22;;;;;;;0.80;100.00;100988.34;5052900;28;20081;-40
2024/01/19 15:09:40;;;;;;;7.90;5.32;;;;;;;0.56;100.00;100995.88;5053082;28;20049;-44
2024/01/19 15:12:06;;;;;;;7.97;5.20;;;;;;;0.38;100.00;100991.72;5053398;28;20037;-42
2024/01/19 15:14:32;;;;;;;11.23;6.22;;;;;;;0.60;100.00;101005.28;5053318;28;20036;-44
2024/01/19 15:16:57;;;;;;;9.70;5.25;;;;;;;0.54;100.00;101003.84;5053046;28;20691;-43
2024/01/19 15:19:23;;;;;;;8.82;4.70;;;;;;;0.40;100.00;101016.09;5052936;28;20126;-43
2024/01/19 15:21:53;;;;;;;7.07;5.38;;;;;;;0.78;100.00;101021.66;5053063;28;20041;-42
2024/01/19 15:24:19;;;;;;;9.30;5.65;;;;;;;0.73;100.00;101021.97;5053036;28;20041;-42
2024/01/19 15:26:45;;;;;;;8.13;5.43;;;;;;;0.88;100.00;101025.44;5051896;28;20032;-38
2024/01/19 15:29:13;;;;;;;10.90;5.65;;;;;;;0.98;100.00;101031.00;5052858;28;20029;-43
2024/01/19 15:31:38;;;;;;;;;;;;;;;0.97;100.00;101034.53;5053940;28;20148;-42
2024/01/19 15:34:04;;;;;;;6.28;5.07;;;;;;;0.61;100.00;101033.19;5053436;28;20580;-43
2024/01/19 15:36:29;;;;;;;8.25;5.25;;;;;;;0.58;100.00;101035.13;5053269;28;20546;-43
2024/01/19 15:38:55;;;;;;;8.43;5.47;;;;;;;0.80;100.00;101036.41;5053399;28;20115;-39
2024/01/19 15:41:22;;;;;;;7.45;5.07;;;;;;;0.66;100.00;101043.41;5053425;28;20429;-43
2024/01/19 15:43:48;;;;;;;9.75;5.72;;;;;;;0.61;100.00;101041.03;5053073;28;20106;-44
2024/01/19 15:46:19;;;;;;;8.88;5.85;;;;;;;0.72;100.00;101049.13;5042332;28;20037;-40
2024/01/19 15:48:45;;;;;;;7.93;5.38;;;;;;;0.26;100.00;101064.03;5042903;28;20033;-40
2024/01/19 15:51:19;;;;;;;7.25;4.90;;;;;;;0.14;100.00;101062.97;5042753;28;20027;-43
2024/01/19 15:53:45;;;;;;;8.77;5.10;;;;;;;0.05;100.00;101070.50;5046529;28;20047;-36
2024/01/19 15:56:20;;;;;;;7.15;5.32;;;;;;;0.16;100.00;101071.59;5051132;28;20037;-36
2024/01/19 15:58:47;;;;;;;9.40;5.68;;;;;;;0.00;100.00;101083.88;5052411;28;20460;-36
2024/01/19 16:01:13;;;;;;;7.82;5.13;;;;;;;0.28;100.00;101085.78;5050765;28;20120;-36
2024/01/19 16:03:42;;;;;;;7.57;5.38;;;;;;;0.36;100.00;101088.81;5052455;28;20104;-36
2024/01/19 16:06:12;;;;;;;10.02;5.65;;;;;;;0.29;100.00;101090.09;5051496;28;20036;-34
2024/01/19 16:08:38;;;;;;;9.73;5.45;;;;;;;0.22;100.00;101091.38;5051991;28;20649;-36
2024/01/19 16:11:07;;;;;;;7.57;5.22;;;;;;;0.15;100.00;101101.34;5052300;28;20049;-36
2024/01/19 16:13:33;;;;;;;9.00;5.95;;;;;;;0.02;100.00;101100.34;5052275;28;20037;-35
2024/01/19 16:16:05;;;;;;;8.55;5.88;;;;;;;-0.12;100.00;101103.72;5050880;28;20220;-35
2024/01/19 16:18:30;;;;;;;7.40;4.80;;;;;;;-0.13;100.00;101102.03;5051590;28;20524;-35
2024/01/19 16:20:56;;;;;;;10.40;5.80;;;;;;;-0.07;100.00;101106.06;5051951;28;20120;-34
2024/01/19 16:23:21;;;;;;;8.20;5.38;;;;;;;-0.17;100.00;101104.91;5047524;28;20041;-35
2024/01/19 16:25:46;;;;;;;11.55;6.07;;;;;;;-0.18;100.00;101106.69;5043940;28;20041;-35
2024/01/19 16:28:12;;;;;;;8.27;5.68;;;;;;;-0.25;100.00;101102.72;5051911;28;20114;-34
2024/01/19 16:30:43;;;;;;;9.15;6.10;;;;;;;-0.47;100.00;101112.63;5051813;28;20434;-33
2024/01/19 16:33:10;;;;;;;8.68;5.75;;;;;;;-0.64;100.00;101119.59;5051953;28;20040;-35
2024/01/19 16:35:36;;;;;;;8.77;5.57;;;;;;;-0.82;100.00;101112.72;5051988;28;20040;-35
2024/01/19 16:38:01;;;;;;;7.65;5.45;;;;;;;-0.73;100.00;101111.38;5051542;28;20094;-35
2024/01/19 16:40:27;;;;;;;11.07;6.28;;;;;;;-1.07;100.00;101110.50;5051742;28;20033;-35